Domov               UVHVVR             MKGP            O straneh              
ZDRAVSTVENO VARSTVO RASTLIN
  MREŽA AGROMET. POSTAJ
 ► PROGNOSTIČNA OBVESTILA
AGROMETEOROLOŠKI PODATKI -
ARSO
OBVLADOVANJE TVEGANJ ZARADI
NEUGODNIH VREMENSKIH RAZMER
  ► NARAVNE NESREČE
  ► SUŠA/MOČA
  ► NAMAKANJE
  ► ŽLED (gozdarstvo)
KARTOGRAFSKI PRIKAZI
SPLETNE POVEZAVE
PROJEKTI IN PUBLIKACIJE

AGROMETEOROLOŠKA MREŽA: VREMENSKE POSTAJE IN FENOLOŠKA OPAZOVANJA

Pregled podatkov za lokacijo Šentilj, meteorološka postaja 24379

Pregled senzorjev na lokaciji

ID Ime Zadnja
vrednost
Datum
zadnje
spremembe
Tip
senzorja
904 Omočenost lista (U) 0 U 19.2.2018 07:00 A730WET
3858 Padavine (mm) 0 mm 19.2.2018 07:00 Generic 0.2 mm
906 Relativna vlaga 2 m (% RH) 82,81 % RH 19.2.2018 07:00 Generic 0 - 100 %
905 Temperatura 2 m (°C) -1,71 °C 19.2.2018 07:00 Generic -40 - +60 °C

Pregled podatkov zadnjih 24 ur

Zap.
št.
Datum in čas Šentilj
Omočenost
lista
Padavine Relativna
vlaga
2
m
Temperatura
2
m
1 19.2.2018 07:00 0 0 82,8 -1,7
2 19.2.2018 06:30 0 0 80,8 -1,7
3 19.2.2018 06:00 0 0 81,4 -1,7
4 19.2.2018 05:30 0 0 82,3 -1,6
5 19.2.2018 05:00 0 0 81,2 -1,6
6 19.2.2018 04:30 0 0 82 -1,5
7 19.2.2018 04:00 0 0 81,6 -1,6
8 19.2.2018 03:30 0 0 80,8 -1,5
9 19.2.2018 03:00 0 0 79,8 -1,5
10 19.2.2018 02:30 0 0 82,1 -1,7
11 19.2.2018 02:00 0 0 84,1 -1,9
12 19.2.2018 01:30 0 0 83,8 -1,7
13 19.2.2018 01:00 0 0 83,1 -1,2
14 19.2.2018 00:30 0 0 82,7 -0,7
15 19.2.2018 00:00 0 0 83,1 -0,3
16 18.2.2018 23:30 0 0 81,3 -0,2
17 18.2.2018 23:00 0 0 79,4 -0,2
18 18.2.2018 22:30 0 0 79,4 -0,1
19 18.2.2018 22:00 0 0 78,5 -0,3
20 18.2.2018 21:30 0 0 76,4 -0,2
21 18.2.2018 21:00 0 0 73,7 -0,2
22 18.2.2018 20:30 0 0 74,2 -0,1
23 18.2.2018 20:00 0 0 75 0
24 18.2.2018 19:30 0 0 74 0,2
25 18.2.2018 19:00 0 0 72,5 0,5
26 18.2.2018 18:30 0 0 69,6 1
27 18.2.2018 18:00 0 0 70,5 1,2
28 18.2.2018 17:30 0 0 73,7 1,5
29 18.2.2018 17:00 0 0 74,7 1,8
30 18.2.2018 16:30 0 0 72,7 2,2
31 18.2.2018 16:00 0 0 70,2 2,5
32 18.2.2018 15:30 0 0 68,9 2,8
33 18.2.2018 15:00 0 0 68,8 3,2
34 18.2.2018 14:30 0 0 69,7 3,6
35 18.2.2018 14:00 0 0,2 76,8 3,7
36 18.2.2018 13:30 0 0,2 82,9 3
37 18.2.2018 13:00 0 0,4 89,7 2,1
38 18.2.2018 12:30 0 0,4 89,8 1,9
39 18.2.2018 12:00 1 1,2 88,8 2,3
40 18.2.2018 11:30 10 1,6 91 2,1
41 18.2.2018 11:00 10 0,6 92 1,6
42 18.2.2018 10:30 10 0 95,2 1
43 18.2.2018 10:00 10 0 98,3 0,2
44 18.2.2018 09:30 10 0 99,2 0,2
45 18.2.2018 09:00 10 0 99,9 -0,1
46 18.2.2018 08:30 10 0 99,9 -0,3
47 18.2.2018 08:00 2 0 99,9 -0,4
48 18.2.2018 07:30 1 0 99,9 -0,6
© 2011 Ministrstvo za kmetijstvo, gozdarstvo in prehrano. Vse pravice pridržane.